DNA419 LRBC-LIPE
Flight info
| Callsign | DNA419 |
|---|---|
| Flight time | 1h 50m |
| Altitude | 36000 |
| Route | REDKU DCT SB095 DCT DEGET DCT EBORO DCT VEBAL DCT NEMEK DCT ROTAR DCT CHI M859 LUMAV |
| Aircraft | A320/M-SDE3FGHIRWY/LB1 |
Departure
| Time | 2026-04-26 13:38 |
|---|---|
| Airport | Bacău George Enescu International Airport (LRBC) |
Arrival
| Time | 2026-04-26 15:29 |
|---|---|
| Airport | Bologna Guglielmo Marconi Airport (LIPE) |
| Time | Latitude | Longitude | Altitude | Speed | Heading |
|---|---|---|---|---|---|
| 2026-04-26 13:18 | 46.53156 | 26.90996 | 629 ft | 0 kts | 74° |
| 2026-04-26 13:29 | 46.53152 | 26.90973 | 627 ft | 2 kts | 77° |
| 2026-04-26 13:29 | 46.53149 | 26.90949 | 617 ft | 2 kts | 82° |
| 2026-04-26 13:30 | 46.53147 | 26.90926 | 623 ft | 2 kts | 90° |
| 2026-04-26 13:30 | 46.53148 | 26.90902 | 623 ft | 2 kts | 110° |
| 2026-04-26 13:30 | 46.53156 | 26.90881 | 624 ft | 2 kts | 152° |
| 2026-04-26 13:30 | 46.53167 | 26.90874 | 626 ft | 1 kts | 166° |
| 2026-04-26 13:31 | 46.53168 | 26.90874 | 626 ft | 0 kts | 166° |
| 2026-04-26 13:33 | 46.53165 | 26.90875 | 627 ft | 3 kts | 166° |
| 2026-04-26 13:33 | 46.53119 | 26.90893 | 620 ft | 10 kts | 165° |
| 2026-04-26 13:33 | 46.53030 | 26.90928 | 618 ft | 16 kts | 165° |
| 2026-04-26 13:34 | 46.52903 | 26.90978 | 622 ft | 20 kts | 165° |
| 2026-04-26 13:34 | 46.52810 | 26.91008 | 614 ft | 13 kts | 182° |
| 2026-04-26 13:34 | 46.52764 | 26.90909 | 616 ft | 14 kts | 254° |
| 2026-04-26 13:34 | 46.52735 | 26.90823 | 616 ft | 15 kts | 219° |
| 2026-04-26 13:35 | 46.52589 | 26.90859 | 621 ft | 18 kts | 165° |
| 2026-04-26 13:35 | 46.52471 | 26.90904 | 621 ft | 18 kts | 165° |
| 2026-04-26 13:35 | 46.52345 | 26.90951 | 615 ft | 19 kts | 164° |
| 2026-04-26 13:35 | 46.52210 | 26.91007 | 621 ft | 22 kts | 165° |
| 2026-04-26 13:36 | 46.52051 | 26.91071 | 622 ft | 25 kts | 165° |
| 2026-04-26 13:36 | 46.51875 | 26.91141 | 618 ft | 28 kts | 165° |
| 2026-04-26 13:36 | 46.51681 | 26.91217 | 622 ft | 30 kts | 165° |
| 2026-04-26 13:36 | 46.51475 | 26.91299 | 624 ft | 32 kts | 164° |
| 2026-04-26 13:37 | 46.51281 | 26.91376 | 623 ft | 24 kts | 165° |
| 2026-04-26 13:37 | 46.51176 | 26.91466 | 614 ft | 18 kts | 138° |
| 2026-04-26 13:37 | 46.51119 | 26.91446 | 621 ft | 9 kts | 279° |
| 2026-04-26 13:37 | 46.51177 | 26.91413 | 625 ft | 14 kts | 348° |
| 2026-04-26 13:38 | 46.51499 | 26.91288 | 621 ft | 89 kts | 344° |
| 2026-04-26 13:38 | 46.52312 | 26.90972 | 738 ft | 140 kts | 349° |
| 2026-04-26 13:38 | 46.53343 | 26.90598 | 1187 ft | 170 kts | 349° |
| 2026-04-26 13:38 | 46.54582 | 26.90223 | 1958 ft | 188 kts | 350° |
| 2026-04-26 13:39 | 46.55894 | 26.89857 | 2698 ft | 198 kts | 349° |
| 2026-04-26 13:39 | 46.57159 | 26.89067 | 3546 ft | 202 kts | 323° |
| 2026-04-26 13:39 | 46.57985 | 26.87405 | 4592 ft | 208 kts | 296° |
| 2026-04-26 13:39 | 46.58134 | 26.85279 | 5493 ft | 220 kts | 264° |
| 2026-04-26 13:40 | 46.57419 | 26.83297 | 6439 ft | 229 kts | 231° |
| 2026-04-26 13:40 | 46.56280 | 26.81717 | 7395 ft | 223 kts | 230° |
| 2026-04-26 13:40 | 46.55167 | 26.80174 | 8236 ft | 220 kts | 231° |
| 2026-04-26 13:40 | 46.54065 | 26.78632 | 9037 ft | 220 kts | 231° |
| 2026-04-26 13:41 | 46.52971 | 26.77095 | 9876 ft | 218 kts | 232° |
| 2026-04-26 13:41 | 46.52025 | 26.75391 | 10273 ft | 226 kts | 251° |
| 2026-04-26 13:41 | 46.51730 | 26.73108 | 10487 ft | 241 kts | 273° |
| 2026-04-26 13:41 | 46.51788 | 26.70556 | 10671 ft | 265 kts | 273° |
| 2026-04-26 13:42 | 46.51849 | 26.67776 | 10884 ft | 284 kts | 274° |
| 2026-04-26 13:42 | 46.51910 | 26.64873 | 11474 ft | 290 kts | 274° |
| 2026-04-26 13:42 | 46.51968 | 26.61938 | 12191 ft | 292 kts | 274° |
| 2026-04-26 13:42 | 46.52023 | 26.58985 | 12916 ft | 294 kts | 274° |
| 2026-04-26 13:43 | 46.52076 | 26.56017 | 13660 ft | 295 kts | 275° |
| 2026-04-26 13:43 | 46.52130 | 26.53023 | 14319 ft | 297 kts | 275° |
| 2026-04-26 13:43 | 46.52182 | 26.50026 | 14916 ft | 298 kts | 275° |
| 2026-04-26 13:43 | 46.52233 | 26.47038 | 15494 ft | 301 kts | 276° |
| 2026-04-26 13:44 | 46.52287 | 26.43984 | 16116 ft | 303 kts | 276° |
| 2026-04-26 13:44 | 46.52342 | 26.40912 | 16679 ft | 306 kts | 276° |
| 2026-04-26 13:44 | 46.52396 | 26.37814 | 17295 ft | 309 kts | 276° |
| 2026-04-26 13:44 | 46.52445 | 26.34687 | 17916 ft | 311 kts | 276° |
| 2026-04-26 13:45 | 46.52493 | 26.31521 | 18476 ft | 314 kts | 276° |
| 2026-04-26 13:45 | 46.52540 | 26.28335 | 18988 ft | 317 kts | 277° |
| 2026-04-26 13:45 | 46.52589 | 26.25126 | 19538 ft | 319 kts | 277° |
| 2026-04-26 13:45 | 46.52637 | 26.21942 | 20140 ft | 320 kts | 277° |
| 2026-04-26 13:46 | 46.52685 | 26.18693 | 20672 ft | 323 kts | 277° |
| 2026-04-26 13:46 | 46.52733 | 26.15430 | 21193 ft | 326 kts | 277° |
| 2026-04-26 13:46 | 46.52781 | 26.12118 | 21695 ft | 329 kts | 277° |
| 2026-04-26 13:46 | 46.52830 | 26.08786 | 22204 ft | 332 kts | 277° |
| 2026-04-26 13:47 | 46.52879 | 26.05422 | 22707 ft | 334 kts | 277° |
| 2026-04-26 13:47 | 46.52926 | 26.02033 | 23213 ft | 337 kts | 277° |
| 2026-04-26 13:47 | 46.52971 | 25.98617 | 23689 ft | 340 kts | 277° |
| 2026-04-26 13:47 | 46.53014 | 25.95222 | 24077 ft | 342 kts | 277° |
| 2026-04-26 13:48 | 46.53055 | 25.91750 | 24485 ft | 345 kts | 277° |
| 2026-04-26 13:48 | 46.53097 | 25.88260 | 24850 ft | 347 kts | 277° |
| 2026-04-26 13:48 | 46.53137 | 25.84742 | 25211 ft | 350 kts | 277° |
| 2026-04-26 13:48 | 46.53176 | 25.81190 | 25601 ft | 353 kts | 277° |
| 2026-04-26 13:49 | 46.53216 | 25.77615 | 25983 ft | 355 kts | 277° |
| 2026-04-26 13:49 | 46.53257 | 25.74025 | 26347 ft | 358 kts | 277° |
| 2026-04-26 13:49 | 46.53297 | 25.70395 | 26701 ft | 360 kts | 276° |
| 2026-04-26 13:49 | 46.53336 | 25.66745 | 27052 ft | 363 kts | 276° |
| 2026-04-26 13:50 | 46.53374 | 25.63070 | 27370 ft | 366 kts | 276° |
| 2026-04-26 13:50 | 46.53408 | 25.59368 | 27709 ft | 368 kts | 276° |
| 2026-04-26 13:50 | 46.53440 | 25.55687 | 28062 ft | 370 kts | 276° |
| 2026-04-26 13:50 | 46.53475 | 25.51935 | 28420 ft | 373 kts | 276° |
| 2026-04-26 13:51 | 46.53508 | 25.48158 | 28771 ft | 375 kts | 276° |
| 2026-04-26 13:51 | 46.53539 | 25.44355 | 29098 ft | 378 kts | 276° |
| 2026-04-26 13:51 | 46.53568 | 25.40531 | 29429 ft | 380 kts | 276° |
| 2026-04-26 13:51 | 46.53597 | 25.36681 | 29743 ft | 383 kts | 276° |
| 2026-04-26 13:52 | 46.53626 | 25.32807 | 30061 ft | 385 kts | 275° |
| 2026-04-26 13:52 | 46.53654 | 25.28901 | 30328 ft | 387 kts | 275° |
| 2026-04-26 13:52 | 46.53680 | 25.24987 | 30667 ft | 387 kts | 275° |
| 2026-04-26 13:52 | 46.53706 | 25.21131 | 31025 ft | 387 kts | 275° |
| 2026-04-26 13:53 | 46.53729 | 25.17224 | 31403 ft | 387 kts | 275° |
| 2026-04-26 13:53 | 46.53750 | 25.13319 | 31777 ft | 387 kts | 275° |
| 2026-04-26 13:53 | 46.53770 | 25.09417 | 32128 ft | 387 kts | 276° |
| 2026-04-26 13:53 | 46.53790 | 25.05512 | 32476 ft | 387 kts | 275° |
| 2026-04-26 13:54 | 46.53807 | 25.01611 | 32871 ft | 387 kts | 275° |
| 2026-04-26 13:54 | 46.53821 | 24.97709 | 33264 ft | 386 kts | 275° |
| 2026-04-26 13:54 | 46.53837 | 24.93810 | 33646 ft | 386 kts | 275° |
| 2026-04-26 13:55 | 46.53864 | 24.86025 | 34312 ft | 386 kts | 275° |
| 2026-04-26 13:55 | 46.53872 | 24.83441 | 34511 ft | 386 kts | 275° |
| 2026-04-26 13:55 | 46.53894 | 24.74411 | 35204 ft | 384 kts | 275° |
| 2026-04-26 13:56 | 46.53903 | 24.70535 | 35495 ft | 384 kts | 275° |
| 2026-04-26 13:56 | 46.53914 | 24.66654 | 35788 ft | 383 kts | 275° |
| 2026-04-26 13:56 | 46.53922 | 24.62789 | 35967 ft | 384 kts | 275° |
| 2026-04-26 13:57 | 46.53930 | 24.55003 | 36006 ft | 387 kts | 274° |
| 2026-04-26 13:57 | 46.53929 | 24.47071 | 36003 ft | 398 kts | 274° |
| 2026-04-26 13:58 | 46.53922 | 24.38931 | 36000 ft | 406 kts | 274° |
| 2026-04-26 13:58 | 46.53908 | 24.30776 | 36002 ft | 407 kts | 274° |
| 2026-04-26 13:59 | 46.53894 | 24.22543 | 36008 ft | 408 kts | 274° |
| 2026-04-26 13:59 | 46.53869 | 24.14283 | 36014 ft | 409 kts | 274° |
| 2026-04-26 14:00 | 46.53807 | 23.97798 | 36028 ft | 410 kts | 273° |
| 2026-04-26 14:01 | 46.53761 | 23.89520 | 36040 ft | 411 kts | 273° |
| 2026-04-26 14:01 | 46.53716 | 23.81213 | 36045 ft | 411 kts | 273° |
| 2026-04-26 14:02 | 46.53667 | 23.72904 | 36043 ft | 412 kts | 273° |
| 2026-04-26 14:02 | 46.53604 | 23.64574 | 36045 ft | 412 kts | 273° |
| 2026-04-26 14:03 | 46.53539 | 23.56232 | 36045 ft | 413 kts | 272° |
| 2026-04-26 14:03 | 46.53471 | 23.47882 | 36052 ft | 414 kts | 272° |
| 2026-04-26 14:04 | 46.53395 | 23.39572 | 36053 ft | 414 kts | 272° |
| 2026-04-26 14:04 | 46.53310 | 23.31200 | 36054 ft | 415 kts | 272° |
| 2026-04-26 14:05 | 46.53222 | 23.22809 | 36057 ft | 416 kts | 272° |
| 2026-04-26 14:05 | 46.53122 | 23.14403 | 36057 ft | 417 kts | 272° |
| 2026-04-26 14:06 | 46.53020 | 23.06048 | 36061 ft | 417 kts | 272° |
| 2026-04-26 14:06 | 46.52913 | 22.97623 | 36064 ft | 418 kts | 272° |
| 2026-04-26 14:07 | 46.52665 | 22.89184 | 36062 ft | 419 kts | 268° |
| 2026-04-26 14:07 | 46.52033 | 22.80749 | 36064 ft | 421 kts | 266° |
| 2026-04-26 14:08 | 46.51327 | 22.72370 | 36065 ft | 420 kts | 266° |
| 2026-04-26 14:08 | 46.50687 | 22.63965 | 36055 ft | 420 kts | 267° |
| 2026-04-26 14:09 | 46.50087 | 22.55532 | 36058 ft | 421 kts | 267° |
| 2026-04-26 14:09 | 46.49484 | 22.47081 | 36062 ft | 422 kts | 267° |
| 2026-04-26 14:10 | 46.48856 | 22.38607 | 36074 ft | 422 kts | 266° |
| 2026-04-26 14:10 | 46.48220 | 22.30202 | 36077 ft | 422 kts | 266° |
| 2026-04-26 14:11 | 46.47262 | 22.17675 | 36079 ft | 412 kts | 266° |
| 2026-04-26 14:11 | 46.46633 | 22.09435 | 36081 ft | 411 kts | 266° |
| 2026-04-26 14:12 | 46.45996 | 22.01211 | 36080 ft | 411 kts | 266° |
| 2026-04-26 14:12 | 46.45351 | 21.93027 | 36085 ft | 411 kts | 266° |
| 2026-04-26 14:13 | 46.44365 | 21.80670 | 36092 ft | 412 kts | 266° |
| 2026-04-26 14:14 | 46.43703 | 21.72419 | 36084 ft | 412 kts | 266° |
| 2026-04-26 14:14 | 46.43037 | 21.64163 | 36084 ft | 413 kts | 266° |
| 2026-04-26 14:15 | 46.42360 | 21.55890 | 36083 ft | 413 kts | 266° |
| 2026-04-26 14:15 | 46.41682 | 21.47672 | 36086 ft | 414 kts | 266° |
| 2026-04-26 14:16 | 46.40995 | 21.39392 | 36087 ft | 414 kts | 265° |
| 2026-04-26 14:16 | 46.40305 | 21.31104 | 36085 ft | 415 kts | 265° |
| 2026-04-26 14:17 | 46.39607 | 21.22860 | 36083 ft | 415 kts | 265° |
| 2026-04-26 14:17 | 46.38892 | 21.14540 | 36088 ft | 416 kts | 265° |
| 2026-04-26 14:18 | 46.38170 | 21.06234 | 36090 ft | 416 kts | 265° |
| 2026-04-26 14:18 | 46.37448 | 20.97912 | 36092 ft | 417 kts | 265° |
| 2026-04-26 14:19 | 46.36726 | 20.89646 | 36094 ft | 417 kts | 265° |
| 2026-04-26 14:19 | 46.35990 | 20.81308 | 36098 ft | 417 kts | 265° |
| 2026-04-26 14:20 | 46.35250 | 20.72979 | 36104 ft | 418 kts | 265° |
| 2026-04-26 14:20 | 46.34501 | 20.64644 | 36110 ft | 418 kts | 265° |
| 2026-04-26 14:21 | 46.33748 | 20.56362 | 36113 ft | 418 kts | 264° |
| 2026-04-26 14:21 | 46.32980 | 20.48017 | 36119 ft | 418 kts | 264° |
| 2026-04-26 14:22 | 46.32209 | 20.39676 | 36116 ft | 418 kts | 264° |
| 2026-04-26 14:22 | 46.31438 | 20.31383 | 36122 ft | 419 kts | 264° |
| 2026-04-26 14:23 | 46.30655 | 20.23034 | 36122 ft | 419 kts | 264° |
| 2026-04-26 14:23 | 46.29869 | 20.14671 | 36128 ft | 420 kts | 264° |
| 2026-04-26 14:24 | 46.29077 | 20.06312 | 36134 ft | 420 kts | 264° |
| 2026-04-26 14:24 | 46.28407 | 19.99348 | 36136 ft | 421 kts | 264° |
| 2026-04-26 14:25 | 46.27466 | 19.89603 | 36143 ft | 421 kts | 264° |
| 2026-04-26 14:25 | 46.26648 | 19.81214 | 36150 ft | 422 kts | 264° |
| 2026-04-26 14:26 | 46.25960 | 19.74237 | 36156 ft | 422 kts | 263° |
| 2026-04-26 14:26 | 46.25130 | 19.65838 | 36154 ft | 422 kts | 263° |
| 2026-04-26 14:27 | 46.24151 | 19.56089 | 36160 ft | 422 kts | 263° |
| 2026-04-26 14:27 | 46.23449 | 19.49055 | 36162 ft | 422 kts | 263° |
| 2026-04-26 14:28 | 46.22608 | 19.40723 | 36163 ft | 422 kts | 263° |
| 2026-04-26 14:28 | 46.21754 | 19.32341 | 36161 ft | 422 kts | 263° |
| 2026-04-26 14:29 | 46.20750 | 19.22601 | 36159 ft | 422 kts | 263° |
| 2026-04-26 14:29 | 46.20030 | 19.15630 | 36158 ft | 422 kts | 263° |
| 2026-04-26 14:30 | 46.19155 | 19.07242 | 36158 ft | 423 kts | 263° |
| 2026-04-26 14:30 | 46.18273 | 18.98846 | 36156 ft | 423 kts | 263° |
| 2026-04-26 14:31 | 46.17386 | 18.90454 | 36161 ft | 423 kts | 263° |
| 2026-04-26 14:31 | 46.16501 | 18.82111 | 36163 ft | 424 kts | 263° |
| 2026-04-26 14:32 | 46.15595 | 18.73710 | 36164 ft | 424 kts | 263° |
| 2026-04-26 14:32 | 46.14532 | 18.63949 | 36171 ft | 424 kts | 263° |
| 2026-04-26 14:33 | 46.13776 | 18.56968 | 36172 ft | 424 kts | 263° |
| 2026-04-26 14:33 | 46.12860 | 18.48565 | 36176 ft | 424 kts | 263° |
| 2026-04-26 14:34 | 46.11941 | 18.40169 | 36175 ft | 424 kts | 263° |
| 2026-04-26 14:34 | 46.11010 | 18.31784 | 36171 ft | 424 kts | 262° |
| 2026-04-26 14:35 | 46.10070 | 18.23438 | 36171 ft | 424 kts | 262° |
| 2026-04-26 14:35 | 46.09122 | 18.15044 | 36169 ft | 425 kts | 262° |
| 2026-04-26 14:36 | 46.08174 | 18.06634 | 36167 ft | 425 kts | 262° |
| 2026-04-26 14:36 | 46.07213 | 17.98233 | 36167 ft | 426 kts | 262° |
| 2026-04-26 14:37 | 46.06253 | 17.89876 | 36174 ft | 426 kts | 262° |
| 2026-04-26 14:37 | 46.05279 | 17.81464 | 36177 ft | 426 kts | 262° |
| 2026-04-26 14:38 | 46.04298 | 17.73035 | 36175 ft | 426 kts | 262° |
| 2026-04-26 14:38 | 46.03314 | 17.64619 | 36171 ft | 426 kts | 262° |
| 2026-04-26 14:39 | 46.02327 | 17.56270 | 36174 ft | 427 kts | 262° |
| 2026-04-26 14:39 | 46.01326 | 17.47843 | 36172 ft | 427 kts | 262° |
| 2026-04-26 14:40 | 46.00313 | 17.39422 | 36175 ft | 427 kts | 262° |
| 2026-04-26 14:40 | 45.99301 | 17.31070 | 36175 ft | 427 kts | 261° |
| 2026-04-26 14:41 | 45.97776 | 17.22798 | 36174 ft | 428 kts | 256° |
| 2026-04-26 14:41 | 45.96135 | 17.14564 | 36180 ft | 428 kts | 256° |
| 2026-04-26 14:42 | 45.94488 | 17.06339 | 36164 ft | 428 kts | 256° |
| 2026-04-26 14:42 | 45.92843 | 16.98180 | 36163 ft | 428 kts | 256° |
| 2026-04-26 14:43 | 45.91184 | 16.89974 | 36167 ft | 428 kts | 255° |
| 2026-04-26 14:43 | 45.89520 | 16.81748 | 36173 ft | 428 kts | 255° |
| 2026-04-26 14:44 | 45.87856 | 16.73543 | 36167 ft | 428 kts | 255° |
| 2026-04-26 14:44 | 45.86189 | 16.65408 | 36165 ft | 428 kts | 255° |
| 2026-04-26 14:45 | 45.84505 | 16.57210 | 36164 ft | 428 kts | 255° |
| 2026-04-26 14:45 | 45.82819 | 16.49024 | 36159 ft | 428 kts | 255° |
| 2026-04-26 14:46 | 45.81126 | 16.40847 | 36157 ft | 428 kts | 255° |
| 2026-04-26 14:46 | 45.79427 | 16.32688 | 36155 ft | 427 kts | 255° |
| 2026-04-26 14:47 | 45.77883 | 16.24534 | 36149 ft | 426 kts | 259° |
| 2026-04-26 14:47 | 45.76720 | 16.16210 | 36149 ft | 426 kts | 261° |
| 2026-04-26 14:48 | 45.75631 | 16.07850 | 36142 ft | 430 kts | 260° |
| 2026-04-26 14:48 | 45.74451 | 15.99440 | 36136 ft | 437 kts | 259° |
| 2026-04-26 14:49 | 45.73184 | 15.90909 | 36137 ft | 438 kts | 259° |
| 2026-04-26 14:49 | 45.71906 | 15.82383 | 36134 ft | 438 kts | 259° |
| 2026-04-26 14:50 | 45.70636 | 15.73847 | 36124 ft | 439 kts | 259° |
| 2026-04-26 14:50 | 45.69384 | 15.65376 | 36113 ft | 439 kts | 259° |
| 2026-04-26 14:51 | 45.68108 | 15.56843 | 36109 ft | 439 kts | 259° |
| 2026-04-26 14:51 | 45.66817 | 15.48310 | 36110 ft | 439 kts | 259° |
| 2026-04-26 14:52 | 45.65537 | 15.39832 | 36115 ft | 440 kts | 259° |
| 2026-04-26 14:52 | 45.64243 | 15.31294 | 36115 ft | 440 kts | 259° |
| 2026-04-26 14:53 | 45.62939 | 15.22763 | 36115 ft | 440 kts | 259° |
| 2026-04-26 14:53 | 45.61628 | 15.14237 | 36117 ft | 439 kts | 259° |
| 2026-04-26 14:54 | 45.60300 | 15.05728 | 36112 ft | 439 kts | 259° |
| 2026-04-26 14:54 | 45.58986 | 14.97280 | 36111 ft | 439 kts | 259° |
| 2026-04-26 14:55 | 45.57660 | 14.88773 | 36111 ft | 439 kts | 259° |
| 2026-04-26 14:55 | 45.56328 | 14.80270 | 36107 ft | 439 kts | 258° |
| 2026-04-26 14:56 | 45.54985 | 14.71782 | 36107 ft | 439 kts | 258° |
| 2026-04-26 14:56 | 45.53649 | 14.63346 | 36103 ft | 439 kts | 258° |
| 2026-04-26 14:57 | 45.52298 | 14.54859 | 36101 ft | 439 kts | 258° |
| 2026-04-26 14:57 | 45.50932 | 14.46374 | 36101 ft | 439 kts | 258° |
| 2026-04-26 14:58 | 45.49560 | 14.37893 | 36103 ft | 439 kts | 258° |
| 2026-04-26 14:58 | 45.48200 | 14.29480 | 36105 ft | 439 kts | 258° |
| 2026-04-26 14:59 | 45.46821 | 14.21008 | 36105 ft | 439 kts | 258° |
| 2026-04-26 14:59 | 45.45434 | 14.12543 | 36104 ft | 439 kts | 258° |
| 2026-04-26 15:00 | 45.44045 | 14.04131 | 36107 ft | 439 kts | 258° |
| 2026-04-26 15:00 | 45.42647 | 13.95658 | 36112 ft | 440 kts | 258° |
| 2026-04-26 15:01 | 45.41255 | 13.87251 | 36063 ft | 427 kts | 258° |
| 2026-04-26 15:01 | 45.40578 | 13.83190 | 35867 ft | 418 kts | 258° |
| 2026-04-26 15:01 | 45.39911 | 13.79190 | 35543 ft | 413 kts | 258° |
| 2026-04-26 15:01 | 45.39258 | 13.75287 | 35196 ft | 410 kts | 258° |
| 2026-04-26 15:02 | 45.38597 | 13.71359 | 34830 ft | 407 kts | 257° |
| 2026-04-26 15:02 | 45.37936 | 13.67459 | 34459 ft | 404 kts | 257° |
| 2026-04-26 15:02 | 45.37277 | 13.63587 | 34106 ft | 401 kts | 257° |
| 2026-04-26 15:02 | 45.36628 | 13.59749 | 33686 ft | 399 kts | 258° |
| 2026-04-26 15:03 | 45.35984 | 13.55922 | 33248 ft | 396 kts | 258° |
| 2026-04-26 15:03 | 45.35342 | 13.52122 | 32816 ft | 394 kts | 258° |
| 2026-04-26 15:03 | 45.34707 | 13.48396 | 32375 ft | 392 kts | 258° |
| 2026-04-26 15:03 | 45.34066 | 13.44640 | 31947 ft | 390 kts | 258° |
| 2026-04-26 15:04 | 45.33420 | 13.40913 | 31536 ft | 389 kts | 255° |
| 2026-04-26 15:04 | 45.32485 | 13.37304 | 31135 ft | 388 kts | 250° |
| 2026-04-26 15:04 | 45.31491 | 13.33750 | 30732 ft | 386 kts | 250° |
| 2026-04-26 15:04 | 45.30494 | 13.30212 | 30358 ft | 385 kts | 250° |
| 2026-04-26 15:05 | 45.29501 | 13.26693 | 29950 ft | 383 kts | 250° |
| 2026-04-26 15:05 | 45.28845 | 13.24366 | 29672 ft | 382 kts | 250° |
| 2026-04-26 15:05 | 45.27526 | 13.19692 | 29165 ft | 380 kts | 250° |
| 2026-04-26 15:05 | 45.26561 | 13.16271 | 28791 ft | 378 kts | 250° |
| 2026-04-26 15:06 | 45.25584 | 13.12815 | 28435 ft | 376 kts | 250° |
| 2026-04-26 15:06 | 45.24610 | 13.09380 | 28081 ft | 374 kts | 250° |
| 2026-04-26 15:06 | 45.23641 | 13.05963 | 27733 ft | 373 kts | 250° |
| 2026-04-26 15:06 | 45.22676 | 13.02563 | 27373 ft | 371 kts | 250° |
| 2026-04-26 15:07 | 45.20754 | 12.95810 | 26670 ft | 367 kts | 250° |
| 2026-04-26 15:07 | 45.19805 | 12.92507 | 26313 ft | 366 kts | 250° |
| 2026-04-26 15:07 | 45.18831 | 12.89181 | 25956 ft | 365 kts | 250° |
| 2026-04-26 15:08 | 45.17858 | 12.85871 | 25592 ft | 363 kts | 250° |
| 2026-04-26 15:08 | 45.16894 | 12.82568 | 25231 ft | 361 kts | 250° |
| 2026-04-26 15:08 | 45.15946 | 12.79284 | 24867 ft | 360 kts | 250° |
| 2026-04-26 15:08 | 45.15003 | 12.75995 | 24502 ft | 359 kts | 250° |
| 2026-04-26 15:09 | 45.14069 | 12.72732 | 24147 ft | 357 kts | 250° |
| 2026-04-26 15:09 | 45.13137 | 12.69474 | 23786 ft | 356 kts | 250° |
| 2026-04-26 15:09 | 45.12221 | 12.66276 | 23402 ft | 355 kts | 250° |
| 2026-04-26 15:09 | 45.11295 | 12.63050 | 23001 ft | 353 kts | 250° |
| 2026-04-26 15:10 | 45.10370 | 12.59842 | 22606 ft | 351 kts | 250° |
| 2026-04-26 15:10 | 45.09757 | 12.57724 | 22343 ft | 350 kts | 250° |
| 2026-04-26 15:10 | 45.08527 | 12.53479 | 21826 ft | 348 kts | 249° |
| 2026-04-26 15:10 | 45.07610 | 12.50321 | 21445 ft | 346 kts | 249° |
| 2026-04-26 15:11 | 45.06709 | 12.47218 | 21073 ft | 345 kts | 249° |
| 2026-04-26 15:11 | 45.05801 | 12.44098 | 20709 ft | 343 kts | 249° |
| 2026-04-26 15:11 | 45.04891 | 12.40978 | 20149 ft | 343 kts | 249° |
| 2026-04-26 15:11 | 45.03988 | 12.37880 | 19629 ft | 339 kts | 249° |
| 2026-04-26 15:12 | 45.03094 | 12.34816 | 19060 ft | 335 kts | 249° |
| 2026-04-26 15:12 | 45.02208 | 12.31782 | 18451 ft | 333 kts | 249° |
| 2026-04-26 15:12 | 45.01330 | 12.28765 | 17762 ft | 330 kts | 249° |
| 2026-04-26 15:12 | 45.00461 | 12.25783 | 17116 ft | 327 kts | 249° |
| 2026-04-26 15:13 | 44.99610 | 12.22876 | 16494 ft | 323 kts | 249° |
| 2026-04-26 15:13 | 44.98758 | 12.19968 | 15889 ft | 319 kts | 249° |
| 2026-04-26 15:13 | 44.97911 | 12.17082 | 15280 ft | 316 kts | 248° |
| 2026-04-26 15:13 | 44.97072 | 12.14235 | 14678 ft | 312 kts | 248° |
| 2026-04-26 15:14 | 44.96248 | 12.11437 | 14317 ft | 306 kts | 248° |
| 2026-04-26 15:14 | 44.95427 | 12.08646 | 14074 ft | 309 kts | 248° |
| 2026-04-26 15:14 | 44.94605 | 12.05862 | 13556 ft | 305 kts | 248° |
| 2026-04-26 15:14 | 44.93790 | 12.03111 | 12887 ft | 303 kts | 248° |
| 2026-04-26 15:15 | 44.92981 | 12.00386 | 12244 ft | 300 kts | 248° |
| 2026-04-26 15:15 | 44.92179 | 11.97682 | 11613 ft | 297 kts | 248° |
| 2026-04-26 15:15 | 44.91394 | 11.95031 | 11035 ft | 295 kts | 248° |
| 2026-04-26 15:15 | 44.90609 | 11.92378 | 10453 ft | 292 kts | 248° |
| 2026-04-26 15:16 | 44.89830 | 11.89747 | 9862 ft | 289 kts | 247° |
| 2026-04-26 15:16 | 44.88815 | 11.87341 | 9267 ft | 285 kts | 228° |
| 2026-04-26 15:16 | 44.87258 | 11.85656 | 8675 ft | 283 kts | 206° |
| 2026-04-26 15:16 | 44.85459 | 11.84555 | 8041 ft | 282 kts | 203° |
| 2026-04-26 15:17 | 44.83659 | 11.83486 | 7457 ft | 280 kts | 203° |
| 2026-04-26 15:17 | 44.82476 | 11.82784 | 7088 ft | 278 kts | 203° |
| 2026-04-26 15:17 | 44.80130 | 11.81390 | 6358 ft | 275 kts | 203° |
| 2026-04-26 15:17 | 44.78378 | 11.80346 | 5788 ft | 272 kts | 203° |
| 2026-04-26 15:18 | 44.76643 | 11.79311 | 5246 ft | 270 kts | 203° |
| 2026-04-26 15:18 | 44.74924 | 11.78287 | 4696 ft | 267 kts | 203° |
| 2026-04-26 15:18 | 44.73224 | 11.77274 | 4142 ft | 265 kts | 203° |
| 2026-04-26 15:18 | 44.71533 | 11.76267 | 3592 ft | 263 kts | 203° |
| 2026-04-26 15:19 | 44.69852 | 11.75270 | 3118 ft | 259 kts | 203° |
| 2026-04-26 15:19 | 44.68177 | 11.74275 | 3013 ft | 263 kts | 203° |
| 2026-04-26 15:19 | 44.66511 | 11.73284 | 3015 ft | 264 kts | 203° |
| 2026-04-26 15:19 | 44.64816 | 11.72277 | 3018 ft | 264 kts | 203° |
| 2026-04-26 15:20 | 44.63125 | 11.71274 | 3021 ft | 264 kts | 202° |
| 2026-04-26 15:20 | 44.61429 | 11.70269 | 3017 ft | 262 kts | 202° |
| 2026-04-26 15:20 | 44.59791 | 11.69297 | 3014 ft | 248 kts | 202° |
| 2026-04-26 15:20 | 44.58246 | 11.68381 | 3023 ft | 236 kts | 202° |
| 2026-04-26 15:21 | 44.56771 | 11.67510 | 3020 ft | 227 kts | 202° |
| 2026-04-26 15:21 | 44.55342 | 11.66667 | 3022 ft | 224 kts | 202° |
| 2026-04-26 15:21 | 44.53906 | 11.65822 | 3023 ft | 223 kts | 202° |
| 2026-04-26 15:21 | 44.52477 | 11.64979 | 3021 ft | 223 kts | 202° |
| 2026-04-26 15:22 | 44.51064 | 11.64107 | 3021 ft | 219 kts | 205° |
| 2026-04-26 15:22 | 44.49713 | 11.63171 | 3018 ft | 215 kts | 206° |
| 2026-04-26 15:22 | 44.48403 | 11.62230 | 3023 ft | 208 kts | 207° |
| 2026-04-26 15:22 | 44.47136 | 11.61312 | 3069 ft | 204 kts | 207° |
| 2026-04-26 15:23 | 44.45882 | 11.60403 | 3020 ft | 202 kts | 206° |
| 2026-04-26 15:23 | 44.44698 | 11.59404 | 3012 ft | 202 kts | 222° |
| 2026-04-26 15:23 | 44.43971 | 11.57841 | 3019 ft | 185 kts | 251° |
| 2026-04-26 15:23 | 44.43851 | 11.56150 | 2999 ft | 168 kts | 278° |
| 2026-04-26 15:24 | 44.44218 | 11.54668 | 3013 ft | 158 kts | 298° |
| 2026-04-26 15:24 | 44.44710 | 11.53304 | 3018 ft | 156 kts | 297° |
| 2026-04-26 15:24 | 44.45198 | 11.51949 | 3024 ft | 155 kts | 297° |
| 2026-04-26 15:24 | 44.45684 | 11.50603 | 3023 ft | 155 kts | 296° |
| 2026-04-26 15:25 | 44.46175 | 11.49248 | 3025 ft | 159 kts | 297° |
| 2026-04-26 15:25 | 44.46509 | 11.48328 | 3026 ft | 161 kts | 297° |
| 2026-04-26 15:25 | 44.47182 | 11.46472 | 2978 ft | 162 kts | 296° |
| 2026-04-26 15:25 | 44.47688 | 11.45074 | 2834 ft | 160 kts | 297° |
| 2026-04-26 15:26 | 44.48193 | 11.43682 | 2591 ft | 160 kts | 296° |
| 2026-04-26 15:26 | 44.48694 | 11.42298 | 2345 ft | 159 kts | 297° |
| 2026-04-26 15:26 | 44.49194 | 11.40917 | 2107 ft | 159 kts | 297° |
| 2026-04-26 15:26 | 44.49693 | 11.39538 | 1863 ft | 159 kts | 297° |
| 2026-04-26 15:27 | 44.50190 | 11.38163 | 1631 ft | 158 kts | 297° |
| 2026-04-26 15:27 | 44.50685 | 11.36794 | 1386 ft | 157 kts | 297° |
| 2026-04-26 15:27 | 44.51176 | 11.35434 | 1133 ft | 157 kts | 297° |
| 2026-04-26 15:27 | 44.51657 | 11.34099 | 892 ft | 155 kts | 298° |
| 2026-04-26 15:28 | 44.52135 | 11.32740 | 597 ft | 155 kts | 298° |
| 2026-04-26 15:28 | 44.52617 | 11.31412 | 355 ft | 153 kts | 299° |
| 2026-04-26 15:28 | 44.53104 | 11.30075 | 162 ft | 154 kts | 298° |
| 2026-04-26 15:28 | 44.53547 | 11.28863 | 126 ft | 106 kts | 297° |
| 2026-04-26 15:29 | 44.53755 | 11.28281 | 124 ft | 34 kts | 296° |
| 2026-04-26 15:29 | 44.53835 | 11.28057 | 127 ft | 18 kts | 294° |
| 2026-04-26 15:29 | 44.53757 | 11.28000 | 128 ft | 7 kts | 164° |
| 2026-04-26 15:30 | 44.53637 | 11.28067 | 126 ft | 12 kts | 131° |
| 2026-04-26 15:30 | 44.53595 | 11.28178 | 130 ft | 14 kts | 117° |
| 2026-04-26 15:30 | 44.53546 | 11.28315 | 128 ft | 17 kts | 116° |
| 2026-04-26 15:31 | 44.53487 | 11.28477 | 128 ft | 20 kts | 117° |
| 2026-04-26 15:31 | 44.53346 | 11.28869 | 129 ft | 25 kts | 117° |
| 2026-04-26 15:31 | 44.53264 | 11.29096 | 130 ft | 27 kts | 116° |
| 2026-04-26 15:32 | 44.53193 | 11.29159 | 131 ft | 10 kts | 282° |
| 2026-04-26 15:32 | 44.53171 | 11.29099 | 129 ft | 1 kts | 206° |
| 2026-04-26 15:32 | 44.53154 | 11.29088 | 130 ft | 3 kts | 206° |
| 2026-04-26 15:33 | 44.53150 | 11.29084 | 130 ft | 0 kts | 207° |